aviador You're here:

BIKF Decoded Metar

KEFLAVIK in ICELAND
Report Time2018-04-24 18:00:00
UTC Time2018-04-24 18:33:17
Flight Rules vfr VFR
Wind040° at 12 kt
W.Decomp.*RWY 02: 9.7 kt HW 7.1 kt RCW
RWY 11: 7.1 kt HW 9.7 kt LCW
W.Rank040° ranks 7
Current wind is above 040° avg. (11.7)
Visibility9999 m
Phenomena:Vicinity showers
Clouds:Few CB 015 Hf
Scattered 027 Hf
Broken 038 Hf
Expected CloudBase > 800 ft AGL from Temp-Dew spread
Ceiling3,800 ft
Temp06°C (ISA -9)
Dew Point04°C (87% RH)
AAT0.4°C
QNH0994 hPa
Density Alt-102 ft
Elevation177 ft
Report Wrong Elevation
Raw Report
METAR BIKF 241800Z 04012KT 9999 VCSH FEW015CB SCT027 BKN038 06/04 Q0994
RERASN=

Extra information for BIKF:More info

Metar Taf Metar & Taf Last 4 Metars F.Rules Stats Wind Profile Meteogram Temp Stats Airport Information Weather charts Add Link Nearby VenuesMetar ALERT Operation Metar Decoded Social comments